createdAt,value
2023-03-05T00:00:11.115Z,101250.93
2023-03-05T00:01:12.106Z,101249.30
2023-03-05T00:02:11.135Z,101246.98
2023-03-05T00:03:11.152Z,101247.44
2023-03-05T00:04:13.102Z,101244.23
2023-03-05T00:05:11.100Z,101244.54
2023-03-05T00:06:11.089Z,101245.48
2023-03-05T00:07:12.096Z,101238.88
2023-03-05T00:08:11.102Z,101240.20
2023-03-05T00:09:11.096Z,101242.66
2023-03-05T00:10:11.088Z,101236.28
2023-03-05T00:11:11.114Z,101234.59
2023-03-05T00:12:11.092Z,101234.82
2023-03-05T00:13:11.085Z,101231.21
2023-03-05T00:14:11.118Z,101227.39
2023-03-05T00:15:11.089Z,101222.60
2023-03-05T00:16:13.114Z,101221.39
2023-03-05T00:17:11.091Z,101222.70
2023-03-05T00:18:11.090Z,101218.47
2023-03-05T00:19:11.108Z,101218.68
2023-03-05T00:20:11.095Z,101222.46
2023-03-05T00:21:21.166Z,101221.71
2023-03-05T00:22:11.090Z,101221.47
2023-03-05T00:23:11.087Z,101223.46
2023-03-05T00:24:15.088Z,101222.66
2023-03-05T00:25:11.090Z,101220.34
2023-03-05T00:26:11.092Z,101219.39
2023-03-05T00:27:11.105Z,101216.91
2023-03-05T00:28:11.090Z,101216.39
2023-03-05T00:29:11.086Z,101212.25
2023-03-05T00:30:11.092Z,101210.57
2023-03-05T00:31:11.144Z,101210.56
2023-03-05T00:32:11.166Z,101209.46
2023-03-05T00:33:11.092Z,101206.07
2023-03-05T00:34:12.092Z,101204.82
2023-03-05T00:35:11.098Z,101206.08
2023-03-05T00:36:11.097Z,101210.95
2023-03-05T00:37:11.095Z,101208.14
2023-03-05T00:38:11.089Z,101210.03
2023-03-05T00:39:11.090Z,101207.42
2023-03-05T00:40:11.127Z,101203.57
2023-03-05T00:41:11.093Z,101202.84
2023-03-05T00:42:11.094Z,101201.82
2023-03-05T00:43:11.099Z,101198.04
2023-03-05T00:44:11.107Z,101199.35
2023-03-05T00:45:11.091Z,101202.78
2023-03-05T00:46:11.159Z,101203.15
2023-03-05T00:47:11.121Z,101198.27
2023-03-05T00:48:11.090Z,101203.34
2023-03-05T00:49:11.095Z,101201.07
2023-03-05T00:50:11.093Z,101198.07
2023-03-05T00:51:11.089Z,101199.33
2023-03-05T00:52:11.096Z,101202.16
2023-03-05T00:53:11.093Z,101201.95
2023-03-05T00:54:11.089Z,101201.24
2023-03-05T00:55:11.104Z,101205.51
2023-03-05T00:56:11.097Z,101205.14
2023-03-05T00:57:11.090Z,101207.38
2023-03-05T00:58:11.098Z,101205.18
2023-03-05T00:59:11.092Z,101204.34
2023-03-05T01:00:11.092Z,101202.47
2023-03-05T01:01:11.083Z,101203.07
2023-03-05T01:02:11.081Z,101199.05
2023-03-05T01:03:11.080Z,101200.51
2023-03-05T01:04:11.074Z,101198.20
2023-03-05T01:05:12.129Z,101203.62
2023-03-05T01:06:12.088Z,101204.27
2023-03-05T01:07:11.069Z,101202.12
2023-03-05T01:08:11.071Z,101199.91
2023-03-05T01:09:11.076Z,101199.13
2023-03-05T01:10:11.068Z,101197.27
2023-03-05T01:11:11.071Z,101195.05
2023-03-05T01:12:11.063Z,101191.21
2023-03-05T01:13:11.066Z,101191.87
2023-03-05T01:14:11.075Z,101191.77
2023-03-05T01:15:11.063Z,101195.13
2023-03-05T01:16:12.093Z,101193.60
2023-03-05T01:17:11.072Z,101189.50
2023-03-05T01:18:11.062Z,101186.22
2023-03-05T01:19:11.064Z,101187.96
2023-03-05T01:20:12.065Z,101184.73
2023-03-05T01:21:11.059Z,101186.92
2023-03-05T01:22:11.060Z,101186.75
2023-03-05T01:23:11.065Z,101186.27
2023-03-05T01:24:11.060Z,101182.83
2023-03-05T01:25:11.061Z,101181.85
2023-03-05T01:26:11.071Z,101181.44
2023-03-05T01:27:11.070Z,101178.20
2023-03-05T01:28:11.054Z,101181.02
2023-03-05T01:29:11.062Z,101177.41
2023-03-05T01:30:13.060Z,101177.23
2023-03-05T01:31:13.171Z,101176.30
2023-03-05T01:32:11.091Z,101171.34
2023-03-05T01:33:11.058Z,101165.97
2023-03-05T01:34:11.059Z,101166.45
2023-03-05T01:35:15.055Z,101165.43
2023-03-05T01:36:11.063Z,101164.09
2023-03-05T01:37:11.059Z,101162.85
2023-03-05T01:38:11.053Z,101155.76
2023-03-05T01:39:11.060Z,101157.64
2023-03-05T01:40:11.058Z,101159.69
2023-03-05T01:41:12.052Z,101161.05
2023-03-05T01:42:11.060Z,101153.46
2023-03-05T01:43:21.058Z,101152.32
2023-03-05T01:44:19.056Z,101151.34
2023-03-05T01:45:12.055Z,101149.09
2023-03-05T01:46:19.066Z,101149.49
2023-03-05T01:47:11.067Z,101152.05
2023-03-05T01:48:11.060Z,101150.75
2023-03-05T01:49:19.065Z,101148.91
2023-03-05T01:50:16.066Z,101142.04
2023-03-05T01:51:11.062Z,101145.45
2023-03-05T01:52:19.057Z,101144.19
2023-03-05T01:53:11.054Z,101142.09
2023-03-05T01:54:11.060Z,101143.35
2023-03-05T01:55:14.060Z,101140.43
2023-03-05T01:56:11.054Z,101144.56
2023-03-05T01:57:13.092Z,101141.89
2023-03-05T01:58:12.058Z,101143.51
2023-03-05T01:59:11.059Z,101137.99
2023-03-05T02:00:15.063Z,101136.18
2023-03-05T02:01:11.098Z,101134.31
2023-03-05T02:02:11.054Z,101134.63
2023-03-05T02:03:11.055Z,101132.78
2023-03-05T02:04:11.176Z,101134.15
2023-03-05T02:05:15.056Z,101134.31
2023-03-05T02:06:11.056Z,101133.07
2023-03-05T02:07:11.064Z,101131.19
2023-03-05T02:08:11.056Z,101129.08
2023-03-05T02:09:11.056Z,101132.69
2023-03-05T02:10:18.058Z,101127.41
2023-03-05T02:11:11.058Z,101124.62
2023-03-05T02:12:11.067Z,101124.61
2023-03-05T02:13:16.065Z,101121.96
2023-03-05T02:14:11.058Z,101121.64
2023-03-05T02:15:11.062Z,101124.79
2023-03-05T02:16:11.103Z,101123.33
2023-03-05T02:17:11.059Z,101120.85
2023-03-05T02:18:11.061Z,101116.05
2023-03-05T02:19:11.072Z,101115.67
2023-03-05T02:20:15.062Z,101113.31
2023-03-05T02:21:11.064Z,101110.49
2023-03-05T02:22:15.065Z,101102.58
2023-03-05T02:23:11.063Z,101107.04
2023-03-05T02:24:14.070Z,101105.53
2023-03-05T02:25:19.059Z,101105.05
2023-03-05T02:26:12.068Z,101102.43
2023-03-05T02:27:12.062Z,101102.85
2023-03-05T02:28:16.061Z,101096.62
2023-03-05T02:29:12.067Z,101095.89
2023-03-05T02:30:11.070Z,101094.43
2023-03-05T02:31:15.061Z,101091.62
2023-03-05T02:32:11.212Z,101091.17
2023-03-05T02:33:11.069Z,101092.00
2023-03-05T02:34:11.059Z,101095.07
2023-03-05T02:35:11.066Z,101090.71
2023-03-05T02:36:11.063Z,101091.25
2023-03-05T02:37:12.063Z,101089.79
2023-03-05T02:38:11.058Z,101085.28
2023-03-05T02:39:11.061Z,101084.19
2023-03-05T02:40:11.061Z,101081.05
2023-03-05T02:41:11.061Z,101081.80
2023-03-05T02:42:11.059Z,101077.50
2023-03-05T02:43:11.073Z,101074.89
2023-03-05T02:44:11.074Z,101070.59
2023-03-05T02:45:11.091Z,101071.31
2023-03-05T02:46:11.111Z,101069.43
2023-03-05T02:47:11.070Z,101067.79
2023-03-05T02:48:11.063Z,101066.94
2023-03-05T02:49:11.079Z,101064.14
2023-03-05T02:50:11.060Z,101066.29
2023-03-05T02:51:11.068Z,101063.19
2023-03-05T02:52:11.079Z,101067.30
2023-03-05T02:53:11.059Z,101063.63
2023-03-05T02:54:11.063Z,101061.34
2023-03-05T02:55:11.066Z,101061.46
2023-03-05T02:56:11.062Z,101062.33
2023-03-05T02:57:11.064Z,101059.58
2023-03-05T02:58:11.070Z,101061.03
2023-03-05T02:59:11.060Z,101060.20
2023-03-05T03:00:11.142Z,101058.96
2023-03-05T03:01:11.145Z,101057.06
2023-03-05T03:02:11.061Z,101054.28
2023-03-05T03:03:11.172Z,101055.92
2023-03-05T03:04:11.073Z,101053.55
2023-03-05T03:05:11.110Z,101048.72
2023-03-05T03:06:11.081Z,101048.91
2023-03-05T03:07:13.071Z,101048.04
2023-03-05T03:08:11.069Z,101046.20
2023-03-05T03:09:11.063Z,101047.45
2023-03-05T03:10:11.078Z,101049.19
2023-03-05T03:11:11.079Z,101052.86
2023-03-05T03:12:11.068Z,101048.73
2023-03-05T03:13:11.071Z,101047.57
2023-03-05T03:14:11.064Z,101045.82
2023-03-05T03:15:12.071Z,101043.03
2023-03-05T03:16:12.065Z,101043.58
2023-03-05T03:17:11.069Z,101044.04
2023-03-05T03:18:11.069Z,101039.93
2023-03-05T03:19:11.071Z,101042.90
2023-03-05T03:20:11.072Z,101040.26
2023-03-05T03:21:15.064Z,101036.96
2023-03-05T03:22:11.069Z,101036.52
2023-03-05T03:23:11.070Z,101033.29
2023-03-05T03:24:11.069Z,101035.28
2023-03-05T03:25:11.077Z,101032.32
2023-03-05T03:26:11.072Z,101028.85
2023-03-05T03:27:11.079Z,101029.09
2023-03-05T03:28:11.069Z,101026.48
2023-03-05T03:29:11.078Z,101021.79
2023-03-05T03:30:11.079Z,101021.05
2023-03-05T03:31:11.147Z,101017.26
2023-03-05T03:32:11.117Z,101015.90
2023-03-05T03:33:11.068Z,101013.20
2023-03-05T03:34:11.066Z,101009.92
2023-03-05T03:35:11.071Z,101007.41
2023-03-05T03:36:11.071Z,101006.63
2023-03-05T03:37:11.069Z,101003.61
2023-03-05T03:38:11.086Z,101005.83
2023-03-05T03:39:11.076Z,101003.61
2023-03-05T03:40:11.066Z,101001.80
2023-03-05T03:41:11.073Z,101001.86
2023-03-05T03:42:11.077Z,101000.28
2023-03-05T03:43:11.072Z,101001.37
2023-03-05T03:44:12.080Z,100997.36
2023-03-05T03:45:11.073Z,100998.70
2023-03-05T03:46:11.170Z,100995.91
2023-03-05T03:47:11.071Z,100992.75
2023-03-05T03:48:11.082Z,100992.00
2023-03-05T03:49:14.071Z,100991.27
2023-03-05T03:50:11.079Z,100988.89
2023-03-05T03:51:11.079Z,100985.86
2023-03-05T03:52:11.085Z,100983.84
2023-03-05T03:53:11.076Z,100984.44
2023-03-05T03:54:11.084Z,100980.85
2023-03-05T03:55:11.072Z,100981.58
2023-03-05T03:56:11.077Z,100979.55
2023-03-05T03:57:11.081Z,100976.44
2023-03-05T03:58:11.079Z,100974.97
2023-03-05T03:59:11.070Z,100971.05
2023-03-05T04:00:11.085Z,100970.50
2023-03-05T04:01:11.070Z,100968.69
2023-03-05T04:02:11.114Z,100965.62
2023-03-05T04:03:11.070Z,100964.50
2023-03-05T04:04:11.116Z,100962.11
2023-03-05T04:05:11.068Z,100962.92
2023-03-05T04:06:11.073Z,100954.89
2023-03-05T04:07:11.069Z,100956.10
2023-03-05T04:08:15.070Z,100955.25
2023-03-05T04:09:11.069Z,100951.81
2023-03-05T04:10:11.076Z,100953.07
2023-03-05T04:11:11.067Z,100950.49
2023-03-05T04:12:11.072Z,100951.82
2023-03-05T04:13:11.076Z,100946.59
2023-03-05T04:14:11.081Z,100950.23
2023-03-05T04:15:11.074Z,100949.01
2023-03-05T04:16:11.173Z,100944.37
2023-03-05T04:17:11.070Z,100943.96
2023-03-05T04:18:11.070Z,100940.35
2023-03-05T04:19:11.092Z,100936.69
2023-03-05T04:20:11.071Z,100938.48
2023-03-05T04:21:11.066Z,100938.62
2023-03-05T04:22:12.095Z,100936.50
2023-03-05T04:23:11.070Z,100936.46
2023-03-05T04:24:11.070Z,100932.32
2023-03-05T04:25:11.078Z,100933.10
2023-03-05T04:26:11.072Z,100932.81
2023-03-05T04:27:11.070Z,100932.86
2023-03-05T04:28:11.075Z,100932.41
2023-03-05T04:29:11.072Z,100935.88
2023-03-05T04:30:12.066Z,100935.59
2023-03-05T04:31:11.167Z,100933.24
2023-03-05T04:32:11.066Z,100930.84
2023-03-05T04:33:11.065Z,100931.69
2023-03-05T04:34:11.067Z,100928.20
2023-03-05T04:35:11.067Z,100929.56
2023-03-05T04:36:11.063Z,100931.35
2023-03-05T04:37:11.066Z,100931.08
2023-03-05T04:38:11.073Z,100931.42
2023-03-05T04:39:11.072Z,100932.62
2023-03-05T04:40:11.066Z,100930.47
2023-03-05T04:41:11.070Z,100931.31
2023-03-05T04:42:11.062Z,100929.59
2023-03-05T04:43:11.065Z,100929.20
2023-03-05T04:44:11.071Z,100931.34
2023-03-05T04:45:11.076Z,100930.09
2023-03-05T04:46:11.083Z,100929.52
2023-03-05T04:47:11.064Z,100929.77
2023-03-05T04:48:11.078Z,100925.29
2023-03-05T04:49:11.062Z,100927.28
2023-03-05T04:50:11.061Z,100927.38
2023-03-05T04:51:11.063Z,100924.03
2023-03-05T04:52:11.062Z,100922.65
2023-03-05T04:53:11.078Z,100917.81
2023-03-05T04:54:11.087Z,100917.55
2023-03-05T04:55:11.059Z,100917.52
2023-03-05T04:56:11.064Z,100915.73
2023-03-05T04:57:11.086Z,100916.34
2023-03-05T04:58:11.081Z,100917.45
2023-03-05T04:59:11.070Z,100913.05
2023-03-05T05:00:17.068Z,100909.86
2023-03-05T05:01:11.066Z,100908.10
2023-03-05T05:02:11.059Z,100904.77
2023-03-05T05:03:11.205Z,100900.33
2023-03-05T05:04:11.063Z,100902.14
2023-03-05T05:05:12.062Z,100902.31
2023-03-05T05:06:11.063Z,100901.27
2023-03-05T05:07:11.073Z,100895.98
2023-03-05T05:08:11.074Z,100895.41
2023-03-05T05:09:11.061Z,100894.89
2023-03-05T05:10:11.090Z,100894.03
2023-03-05T05:11:13.069Z,100893.14
2023-03-05T05:12:11.063Z,100892.08
2023-03-05T05:13:11.065Z,100891.19
2023-03-05T05:14:11.087Z,100888.29
2023-03-05T05:15:11.070Z,100888.79
2023-03-05T05:16:11.116Z,100888.22
2023-03-05T05:17:11.074Z,100883.97
2023-03-05T05:18:11.065Z,100882.78
2023-03-05T05:19:11.106Z,100882.03
2023-03-05T05:20:11.074Z,100880.76
2023-03-05T05:21:13.066Z,100881.01
2023-03-05T05:22:11.070Z,100878.65
2023-03-05T05:23:11.071Z,100878.81
2023-03-05T05:24:11.065Z,100873.93
2023-03-05T05:25:11.076Z,100875.82
2023-03-05T05:26:11.078Z,100870.82
2023-03-05T05:27:11.063Z,100869.85
2023-03-05T05:28:11.071Z,100869.23
2023-03-05T05:29:11.073Z,100867.81
2023-03-05T05:30:11.066Z,100866.88
2023-03-05T05:31:12.079Z,100864.53
2023-03-05T05:32:11.100Z,100864.96
2023-03-05T05:33:11.068Z,100859.84
2023-03-05T05:34:11.064Z,100861.79
2023-03-05T05:35:11.109Z,100861.80
2023-03-05T05:36:13.066Z,100863.04
2023-03-05T05:37:11.070Z,100860.98
2023-03-05T05:38:11.067Z,100859.68
2023-03-05T05:39:11.075Z,100856.39
2023-03-05T05:40:11.074Z,100854.75
2023-03-05T05:41:11.100Z,100854.53
2023-03-05T05:42:11.072Z,100854.12
2023-03-05T05:43:11.070Z,100851.17
2023-03-05T05:44:11.071Z,100851.84
2023-03-05T05:45:11.119Z,100852.16
2023-03-05T05:46:12.275Z,100849.91
2023-03-05T05:47:11.074Z,100848.98
2023-03-05T05:48:11.083Z,100851.64
2023-03-05T05:49:11.073Z,100847.00
2023-03-05T05:50:11.074Z,100849.18
2023-03-05T05:51:11.115Z,100844.48
2023-03-05T05:52:11.082Z,100844.60
2023-03-05T05:53:11.075Z,100844.17
2023-03-05T05:54:12.082Z,100843.84
2023-03-05T05:55:11.072Z,100844.65
2023-03-05T05:56:11.099Z,100843.29
2023-03-05T05:57:11.089Z,100841.81
2023-03-05T05:58:11.075Z,100839.91
2023-03-05T05:59:12.080Z,100842.34
2023-03-05T06:00:11.086Z,100840.99
2023-03-05T06:01:19.074Z,100839.84
2023-03-05T06:02:11.140Z,100837.07
2023-03-05T06:03:11.117Z,100834.41
2023-03-05T06:04:11.080Z,100833.43
2023-03-05T06:05:12.074Z,100831.65
2023-03-05T06:06:12.073Z,100833.16
2023-03-05T06:07:11.082Z,100835.13
2023-03-05T06:08:11.072Z,100831.43
2023-03-05T06:09:11.078Z,100837.66
2023-03-05T06:10:11.088Z,100835.08
2023-03-05T06:11:11.074Z,100834.98
2023-03-05T06:12:11.071Z,100840.18
2023-03-05T06:13:11.082Z,100835.05
2023-03-05T06:14:11.079Z,100832.64
2023-03-05T06:15:11.074Z,100831.55
2023-03-05T06:16:13.119Z,100833.50
2023-03-05T06:17:12.869Z,100830.40
2023-03-05T06:18:11.072Z,100832.40
2023-03-05T06:19:13.105Z,100830.41
2023-03-05T06:20:11.076Z,100825.64
2023-03-05T06:21:12.077Z,100824.88
2023-03-05T06:22:11.073Z,100823.45
2023-03-05T06:23:11.089Z,100828.61
2023-03-05T06:24:11.075Z,100824.52
2023-03-05T06:25:11.077Z,100826.39
2023-03-05T06:26:11.089Z,100825.16
2023-03-05T06:27:11.079Z,100825.33
2023-03-05T06:28:11.089Z,100822.46
2023-03-05T06:29:11.085Z,100824.11
2023-03-05T06:30:12.084Z,100819.09
2023-03-05T06:31:18.075Z,100823.39
2023-03-05T06:32:11.144Z,100821.63
2023-03-05T06:33:11.076Z,100820.12
2023-03-05T06:34:11.072Z,100819.42
2023-03-05T06:35:11.084Z,100821.05
2023-03-05T06:36:12.076Z,100821.80
2023-03-05T06:37:11.087Z,100820.57
2023-03-05T06:38:11.074Z,100817.97
2023-03-05T06:39:11.075Z,100820.08
2023-03-05T06:40:11.077Z,100820.31
2023-03-05T06:41:11.077Z,100819.64
2023-03-05T06:42:11.076Z,100822.34
2023-03-05T06:43:11.072Z,100822.33
2023-03-05T06:44:11.078Z,100823.46
2023-03-05T06:45:11.083Z,100822.01
2023-03-05T06:46:16.136Z,100824.38
2023-03-05T06:47:11.078Z,100824.88
2023-03-05T06:48:11.078Z,100825.37
2023-03-05T06:49:11.072Z,100827.52
2023-03-05T06:50:11.074Z,100825.82
2023-03-05T06:51:18.084Z,100827.74
2023-03-05T06:52:11.074Z,100825.34
2023-03-05T06:53:11.077Z,100822.69
2023-03-05T06:54:14.088Z,100824.64
2023-03-05T06:55:11.077Z,100824.35
2023-03-05T06:56:11.079Z,100830.34
2023-03-05T06:57:11.088Z,100823.12
2023-03-05T06:58:11.077Z,100827.18
2023-03-05T06:59:11.075Z,100829.07
2023-03-05T07:00:14.090Z,100827.43
2023-03-05T07:01:11.103Z,100819.69
2023-03-05T07:02:11.131Z,100821.73
2023-03-05T07:03:11.063Z,100818.81
2023-03-05T07:04:11.072Z,100816.24
2023-03-05T07:05:11.065Z,100816.80
2023-03-05T07:06:12.064Z,100815.13
2023-03-05T07:07:11.074Z,100811.91
2023-03-05T07:08:11.061Z,100814.16
2023-03-05T07:09:12.062Z,100811.98
2023-03-05T07:10:11.100Z,100813.00
2023-03-05T07:11:17.067Z,100815.29
2023-03-05T07:12:12.068Z,100813.24
2023-03-05T07:13:11.065Z,100811.36
2023-03-05T07:14:11.062Z,100813.09
2023-03-05T07:15:11.061Z,100811.95
2023-03-05T07:16:13.109Z,100812.23
2023-03-05T07:17:11.067Z,100811.61
2023-03-05T07:18:11.065Z,100806.53
2023-03-05T07:19:11.068Z,100805.03
2023-03-05T07:20:11.067Z,100801.91
2023-03-05T07:21:11.059Z,100800.73
2023-03-05T07:22:11.064Z,100801.45
2023-03-05T07:23:11.072Z,100802.16
2023-03-05T07:24:12.064Z,100795.73
2023-03-05T07:25:11.069Z,100792.37
2023-03-05T07:26:11.075Z,100791.77
2023-03-05T07:27:11.059Z,100788.79
2023-03-05T07:28:11.099Z,100786.33
2023-03-05T07:29:11.071Z,100789.94
2023-03-05T07:30:11.062Z,100792.06
2023-03-05T07:31:16.148Z,100789.21
2023-03-05T07:32:11.149Z,100788.20
2023-03-05T07:33:11.064Z,100789.05
2023-03-05T07:34:11.069Z,100785.79
2023-03-05T07:35:11.070Z,100784.50
2023-03-05T07:36:11.063Z,100783.25
2023-03-05T07:37:11.067Z,100779.86
2023-03-05T07:38:11.075Z,100779.23
2023-03-05T07:39:11.064Z,100779.60
2023-03-05T07:40:11.068Z,100778.33
2023-03-05T07:41:11.072Z,100771.41
2023-03-05T07:42:11.151Z,100767.09
2023-03-05T07:43:11.064Z,100765.52
2023-03-05T07:44:11.067Z,100765.24
2023-03-05T07:45:11.072Z,100766.21
2023-03-05T07:46:11.133Z,100766.64
2023-03-05T07:47:12.072Z,100760.95
2023-03-05T07:48:14.096Z,100764.92
2023-03-05T07:49:11.071Z,100760.34
2023-03-05T07:50:11.074Z,100753.33
2023-03-05T07:51:15.065Z,100751.32
2023-03-05T07:52:11.068Z,100746.57
2023-03-05T07:53:11.097Z,100747.97
2023-03-05T07:54:11.063Z,100745.25
2023-03-05T07:55:11.072Z,100743.20
2023-03-05T07:56:11.088Z,100740.62
2023-03-05T07:57:11.067Z,100739.38
2023-03-05T07:58:11.067Z,100738.81
2023-03-05T07:59:12.087Z,100738.14
2023-03-05T08:00:11.068Z,100739.52
2023-03-05T08:01:13.400Z,100743.06
2023-03-05T08:02:12.130Z,100741.33
2023-03-05T08:03:11.066Z,100737.58
2023-03-05T08:04:11.223Z,100735.19
2023-03-05T08:05:11.078Z,100739.93
2023-03-05T08:06:11.069Z,100736.76
2023-03-05T08:07:11.064Z,100738.06
2023-03-05T08:08:11.076Z,100734.25
2023-03-05T08:09:11.069Z,100735.07
2023-03-05T08:10:11.072Z,100735.43
2023-03-05T08:11:12.071Z,100728.00
2023-03-05T08:12:11.075Z,100724.08
2023-03-05T08:13:11.069Z,100722.09
2023-03-05T08:14:11.086Z,100726.03
2023-03-05T08:15:11.070Z,100718.64
2023-03-05T08:16:15.095Z,100715.27
2023-03-05T08:17:11.071Z,100717.18
2023-03-05T08:18:11.071Z,100717.16
2023-03-05T08:19:12.066Z,100714.61
2023-03-05T08:20:14.075Z,100720.51
2023-03-05T08:21:21.067Z,100720.94
2023-03-05T08:22:11.088Z,100717.97
2023-03-05T08:23:11.071Z,100722.52
2023-03-05T08:24:11.067Z,100718.06
2023-03-05T08:25:11.072Z,100720.82
2023-03-05T08:26:15.063Z,100719.31
2023-03-05T08:27:11.070Z,100720.19
2023-03-05T08:28:11.067Z,100718.25
2023-03-05T08:29:11.066Z,100716.54
2023-03-05T08:30:13.066Z,100722.13
2023-03-05T08:31:11.145Z,100727.19
2023-03-05T08:32:11.096Z,100724.76
2023-03-05T08:33:11.069Z,100730.10
2023-03-05T08:34:11.068Z,100731.28
2023-03-05T08:35:11.072Z,100731.30
2023-03-05T08:36:11.070Z,100730.18
2023-03-05T08:37:11.068Z,100734.00
2023-03-05T08:38:11.068Z,100730.63
2023-03-05T08:39:12.068Z,100723.14
2023-03-05T08:40:11.073Z,100721.33
2023-03-05T08:41:11.067Z,100725.48
2023-03-05T08:42:11.077Z,100718.74
2023-03-05T08:43:11.068Z,100715.37
2023-03-05T08:44:11.065Z,100713.82
2023-03-05T08:45:11.067Z,100709.82
2023-03-05T08:46:11.124Z,100709.48
2023-03-05T08:47:11.075Z,100709.12
2023-03-05T08:48:11.069Z,100705.15
2023-03-05T08:49:11.072Z,100708.04
2023-03-05T08:50:11.066Z,100705.34
2023-03-05T08:51:14.078Z,100706.77
2023-03-05T08:52:11.077Z,100704.16
2023-03-05T08:53:11.067Z,100703.79
2023-03-05T08:54:11.072Z,100708.85
2023-03-05T08:55:11.079Z,100708.92
2023-03-05T08:56:11.075Z,100704.27
2023-03-05T08:57:11.068Z,100703.94
2023-03-05T08:58:11.074Z,100708.76
2023-03-05T08:59:12.718Z,100712.06
2023-03-05T09:00:11.067Z,100708.67
2023-03-05T09:01:11.074Z,100706.12
2023-03-05T09:02:11.118Z,100702.89
2023-03-05T09:03:11.203Z,100702.29
2023-03-05T09:04:11.077Z,100700.51
2023-03-05T09:05:11.072Z,100702.74
2023-03-05T09:06:11.069Z,100700.52
2023-03-05T09:07:11.077Z,100702.49
2023-03-05T09:08:11.075Z,100700.17
2023-03-05T09:09:11.068Z,100700.40
2023-03-05T09:10:11.077Z,100704.63
2023-03-05T09:11:11.072Z,100699.71
2023-03-05T09:12:12.271Z,100696.12
2023-03-05T09:13:11.078Z,100700.31
2023-03-05T09:14:11.074Z,100692.91
2023-03-05T09:15:11.070Z,100697.21
2023-03-05T09:16:15.150Z,100690.15
2023-03-05T09:17:11.074Z,100690.79
2023-03-05T09:18:12.074Z,100688.93
2023-03-05T09:19:11.070Z,100684.16
2023-03-05T09:20:13.082Z,100680.31
2023-03-05T09:21:11.070Z,100682.34
2023-03-05T09:22:11.074Z,100684.37
2023-03-05T09:23:11.072Z,100688.70
2023-03-05T09:24:11.070Z,100686.17
2023-03-05T09:25:11.073Z,100684.73
2023-03-05T09:26:11.074Z,100682.73
2023-03-05T09:27:11.078Z,100686.46
2023-03-05T09:28:11.077Z,100684.45
2023-03-05T09:29:11.081Z,100689.34
2023-03-05T09:30:12.076Z,100684.46
2023-03-05T09:31:11.074Z,100687.04
2023-03-05T09:32:11.112Z,100681.86
2023-03-05T09:33:11.094Z,100678.39
2023-03-05T09:34:11.080Z,100672.48
2023-03-05T09:35:11.070Z,100671.36
2023-03-05T09:36:18.070Z,100670.85
2023-03-05T09:37:11.073Z,100669.10
2023-03-05T09:38:11.072Z,100665.47
2023-03-05T09:39:11.067Z,100666.73
2023-03-05T09:40:15.080Z,100660.52
2023-03-05T09:41:19.077Z,100658.90
2023-03-05T09:42:19.077Z,100653.75
2023-03-05T09:43:21.074Z,100652.88
2023-03-05T09:44:21.071Z,100646.00
2023-03-05T09:45:19.106Z,100650.20
2023-03-05T09:46:23.074Z,100650.53
2023-03-05T09:47:21.077Z,100654.17
2023-03-05T09:48:19.070Z,100646.69
2023-03-05T09:49:20.071Z,100643.09
2023-03-05T09:50:19.080Z,100639.50
2023-03-05T09:51:16.073Z,100641.44
2023-03-05T09:52:20.074Z,100637.12
2023-03-05T09:53:19.072Z,100634.73
2023-03-05T09:54:19.078Z,100636.23
2023-03-05T09:55:19.071Z,100635.72
2023-03-05T09:56:19.082Z,100635.38
2023-03-05T09:57:16.075Z,100635.34
2023-03-05T09:58:16.081Z,100631.61
2023-03-05T09:59:19.083Z,100626.54
2023-03-05T10:00:20.062Z,100626.52
2023-03-05T10:01:19.063Z,100631.87
2023-03-05T10:02:21.072Z,100629.82
2023-03-05T10:03:19.146Z,100631.81
2023-03-05T10:04:19.154Z,100628.68
2023-03-05T10:05:19.060Z,100629.21
2023-03-05T10:06:21.066Z,100628.54
2023-03-05T10:07:18.081Z,100626.60
2023-03-05T10:08:11.066Z,100626.73
2023-03-05T10:09:21.072Z,100625.16
2023-03-05T10:10:17.089Z,100625.01
2023-03-05T10:11:19.072Z,100622.60
2023-03-05T10:12:19.067Z,100620.06
2023-03-05T10:13:19.064Z,100617.41
2023-03-05T10:14:14.087Z,100619.05
2023-03-05T10:15:19.067Z,100614.47
2023-03-05T10:16:21.081Z,100611.47
2023-03-05T10:17:21.067Z,100609.23
2023-03-05T10:18:19.064Z,100609.21
2023-03-05T10:19:19.071Z,100606.42
2023-03-05T10:20:19.068Z,100603.24
2023-03-05T10:21:18.066Z,100598.63
2023-03-05T10:22:19.073Z,100593.84
2023-03-05T10:23:19.061Z,100597.58
2023-03-05T10:24:21.067Z,100597.26
2023-03-05T10:25:21.096Z,100601.87
2023-03-05T10:26:19.068Z,100601.63
2023-03-05T10:27:17.106Z,100600.05
2023-03-05T10:28:17.062Z,100603.58
2023-03-05T10:29:19.071Z,100599.98
2023-03-05T10:30:19.066Z,100599.32
2023-03-05T10:31:19.064Z,100597.61
2023-03-05T10:32:21.149Z,100594.74
2023-03-05T10:33:21.068Z,100594.07
2023-03-05T10:34:21.102Z,100590.79
2023-03-05T10:35:21.097Z,100588.84
2023-03-05T10:36:19.069Z,100586.95
2023-03-05T10:37:19.063Z,100591.70
2023-03-05T10:38:19.072Z,100587.91
2023-03-05T10:39:19.069Z,100590.98
2023-03-05T10:40:23.078Z,100589.38
2023-03-05T10:41:19.069Z,100589.69
2023-03-05T10:42:19.066Z,100590.54
2023-03-05T10:43:21.069Z,100588.07
2023-03-05T10:44:19.069Z,100589.56
2023-03-05T10:45:18.084Z,100586.07
2023-03-05T10:46:16.113Z,100579.97
2023-03-05T10:47:20.063Z,100578.73
2023-03-05T10:48:19.068Z,100580.24
2023-03-05T10:49:23.077Z,100578.10
2023-03-05T10:50:21.078Z,100577.65
2023-03-05T10:51:21.072Z,100575.41
2023-03-05T10:52:18.143Z,100572.66
2023-03-05T10:53:17.071Z,100572.73
2023-03-05T10:54:19.072Z,100568.46
2023-03-05T10:55:15.075Z,100568.68
2023-03-05T10:56:12.070Z,100566.67
2023-03-05T10:57:18.072Z,100565.66
2023-03-05T10:58:17.071Z,100564.90
2023-03-05T10:59:11.089Z,100561.15
2023-03-05T11:00:23.081Z,100559.43
2023-03-05T11:01:21.105Z,100556.23
2023-03-05T11:02:12.098Z,100552.41
2023-03-05T11:03:11.110Z,100549.06
2023-03-05T11:04:19.068Z,100549.68
2023-03-05T11:05:19.064Z,100551.36
2023-03-05T11:06:13.068Z,100548.03
2023-03-05T11:07:21.074Z,100546.25
2023-03-05T11:08:19.066Z,100542.97
2023-03-05T11:09:19.061Z,100544.43
2023-03-05T11:10:16.075Z,100543.59
2023-03-05T11:11:17.065Z,100537.22
2023-03-05T11:12:15.079Z,100538.36
2023-03-05T11:13:21.066Z,100540.03
2023-03-05T11:14:19.064Z,100541.73
2023-03-05T11:15:19.066Z,100546.79
2023-03-05T11:16:16.128Z,100543.75
2023-03-05T11:17:19.066Z,100541.50
2023-03-05T11:18:19.075Z,100539.40
2023-03-05T11:19:21.062Z,100539.17
2023-03-05T11:20:19.066Z,100536.46
2023-03-05T11:21:12.071Z,100534.64
2023-03-05T11:22:21.086Z,100534.43
2023-03-05T11:23:18.074Z,100535.73
2023-03-05T11:24:17.063Z,100530.80